• Join FlightAware (Why Join?)
  • Login
  • US Flag 
09:25PM EST


 

Airport Tracker/Info


-or-


 

Live Flight TrackerFlight Track Log ✈ N1926A ✈ 23-Apr-2013 ✈ 41A - KJKA

Flight Track Log - Related Links

Times and Time Zones

All times are in EDT time to prevent confusion due to time zone crossing. See the N1926A flight status page for this flight to view local times or setup timezone preferences in your user account.

Time Position Orientation Groundspeed Altitude Reporting Facility
EDT Latitude Longitude Course Direction KTS MPH feet Rate Location/Type
11:18AM 32.4336 -85.9192 212° Southwest 165 190 4,900  Level Atlanta Center
11:19AM 32.3914 -85.9500 212° Southwest 158 182 6,800 1,320 Climbing Atlanta Center
11:20AM 32.3406 -85.9933 216° Southwest 195 224 7,600 1,140 Climbing Atlanta Center
11:21AM 32.2919 -86.0339 215° Southwest 216 249 9,100 1,560 Climbing Atlanta Center
11:22AM 32.2392 -86.0744 213° Southwest 221 254 10,800 1,620 Climbing Atlanta Center
11:23AM 32.2027 -86.1230 212° Southwest  Level FlightAware Approximate
11:23AM 32.1842 -86.1100 209° Southwest 221 254 12,400  Level Atlanta Center
11:24AM 32.1314 -86.1531 215° Southwest 226 260 13,900 780 Climbing Atlanta Center
11:25AM 32.0764 -86.2008 216° Southwest 237 273 14,000  Climbing Atlanta Center
11:26AM 32.0167 -86.2606 220° Southwest 248 285 13,900  Descending Atlanta Center
11:27AM 31.9800 -86.3306 238° Southwest 248 285 14,000  Climbing Atlanta Center
11:28AM 31.9431 -86.4031 239° Southwest 258 297 14,000  Level Atlanta Center
11:29AM 31.9083 -86.4781 241° Southwest 263 303 14,000  Level Atlanta Center
11:30AM 31.8714 -86.5528 240° Southwest 263 303 14,000  Level Atlanta Center
11:31AM 31.8386 -86.6278 243° Southwest 263 303 14,000  Level Atlanta Center
11:32AM 31.8056 -86.7050 243° Southwest 263 303 14,000  Level Atlanta Center
11:33AM 31.7725 -86.7797 243° Southwest 263 303 14,000  Level Atlanta Center
11:34AM 31.7356 -86.8542 240° Southwest 263 303 14,000  Level Atlanta Center
11:36AM 31.6586 -87.0031 239° Southwest 260 299 14,000  Level Houston Center
11:37AM 31.6144 -87.0917 240° Southwest 262 302 14,000  Level Houston Center
11:38AM 31.5747 -87.1636 237° Southwest 264 304 14,000 -300 Level Houston Center
11:39AM 31.5333 -87.2342 235° Southwest 263 303 13,400 -840 Descending Houston Center
11:40AM 31.4858 -87.3094 234° Southwest 280 322 12,300 -900 Descending Houston Center
11:41AM 31.4394 -87.3858 235° Southwest 286 329 11,600 -660 Descending Houston Center
11:42AM 31.3858 -87.4481 225° Southwest 278 320 11,000 -300 Descending Houston Center
11:43AM 31.3142 -87.5086 216° Southwest 266 306 11,100 -120 Climbing Houston Center
11:44AM 31.2519 -87.5550 213° Southwest 265 305 10,800 -300 Descending Houston Center
11:45AM 31.1878 -87.6022 212° Southwest 269 310 10,500 -240 Descending Houston Center
11:46AM 31.1247 -87.6489 212° Southwest 268 308 10,400 -240 Descending Houston Center
11:47AM 31.0625 -87.6953 213° Southwest 266 306 10,000 -660 Descending Houston Center
11:48AM 30.9981 -87.7428 212° Southwest 271 312 9,100 -540 Descending Houston Center
11:49AM 30.9144 -87.7403 179° South 267 307 9,000 -60 Descending Houston Center
11:50AM 30.8475 -87.7136 161° South 256 295 9,000  Level Houston Center
11:51AM 30.7997 -87.7025 169° South 252 290 9,000  Level Jacksonville Center
11:52AM 30.7322 -87.6725 159° South 250 288 9,000  Level Jacksonville Center
11:53AM 30.6725 -87.6478 160° South 250 288 9,000 -840 Level Jacksonville Center
11:54AM 30.6044 -87.6250 164° South 258 297 7,400 -1,860 Descending Jacksonville Center
11:55AM 30.5278 -87.6142 173° South 238 274 5,100 -2,100 Descending Jacksonville Center
11:56AM 30.4800 -87.6019 168° South 224 258 3,400 -1,920 Descending Jacksonville Center
11:57AM 30.4092 -87.6011 179° South 215 247 1,500 -1,740 Descending Jacksonville Center